createdAt,value
2018-09-25T00:00:17.763Z,99232.20
2018-09-25T00:02:51.617Z,99234.77
2018-09-25T00:05:25.306Z,99235.66
2018-09-25T00:07:59.078Z,99236.46
2018-09-25T00:10:32.765Z,99238.13
2018-09-25T00:13:06.590Z,99243.25
2018-09-25T00:15:40.427Z,99237.74
2018-09-25T00:18:14.345Z,99235.57
2018-09-25T00:20:47.939Z,99233.02
2018-09-25T00:23:21.850Z,99230.84
2018-09-25T00:25:55.587Z,99242.36
2018-09-25T00:28:29.470Z,99250.03
2018-09-25T00:31:03.409Z,99243.63
2018-09-25T00:33:37.211Z,99246.70
2018-09-25T00:36:11.135Z,99253.87
2018-09-25T00:38:45.074Z,99252.67
2018-09-25T00:41:19.033Z,99249.17
2018-09-25T00:43:52.726Z,99246.28
2018-09-25T00:46:26.478Z,99256.05
2018-09-25T00:49:00.276Z,99256.43
2018-09-25T00:51:34.020Z,99253.48
2018-09-25T00:54:07.691Z,99253.10
2018-09-25T00:56:41.355Z,99247.98
2018-09-25T00:59:15.356Z,99256.94
2018-09-25T01:01:48.995Z,99250.54
2018-09-25T01:04:22.923Z,99249.26
2018-09-25T01:06:56.652Z,99241.97
2018-09-25T01:09:30.173Z,99246.20
2018-09-25T01:12:03.938Z,99246.61
2018-09-25T01:14:37.781Z,99252.89
2018-09-25T01:17:11.589Z,99249.05
2018-09-25T01:19:45.277Z,99247.27
2018-09-25T01:22:19.094Z,99250.34
2018-09-25T01:24:52.759Z,99249.64
2018-09-25T01:27:26.508Z,99245.34
2018-09-25T01:30:00.362Z,99192.72
2018-09-25T01:32:34.195Z,99249.44
2018-09-25T01:35:07.852Z,99248.97
2018-09-25T01:37:41.599Z,99253.67
2018-09-25T01:40:15.473Z,99252.00
2018-09-25T01:42:50.227Z,99253.28
2018-09-25T01:45:23.871Z,99255.37
2018-09-25T01:47:57.723Z,99255.75
2018-09-25T01:50:31.563Z,99256.23
2018-09-25T01:53:05.407Z,99260.48
2018-09-25T01:55:39.123Z,99255.75
2018-09-25T01:58:12.836Z,99257.42
2018-09-25T02:00:46.715Z,99258.31
2018-09-25T02:03:20.338Z,99261.77
2018-09-25T02:05:54.132Z,99265.09
2018-09-25T02:08:27.823Z,99258.70
2018-09-25T02:11:01.655Z,99266.80
2018-09-25T02:13:35.507Z,99269.44
2018-09-25T02:16:09.377Z,99275.33
2018-09-25T02:18:43.208Z,99278.79
2018-09-25T02:21:16.865Z,99270.64
2018-09-25T02:23:50.596Z,99274.95
2018-09-25T02:26:24.265Z,99277.89
2018-09-25T02:28:57.915Z,99280.45
2018-09-25T02:31:31.487Z,99285.19
2018-09-25T02:34:05.358Z,99290.30
2018-09-25T02:36:38.967Z,99286.85
2018-09-25T02:39:15.064Z,99291.59
2018-09-25T02:41:49.243Z,99294.53
2018-09-25T02:44:23.012Z,99294.53
2018-09-25T02:46:56.692Z,99301.82
2018-09-25T02:49:30.511Z,99300.45
2018-09-25T02:52:04.225Z,99304.38
2018-09-25T02:54:37.958Z,99302.63
2018-09-25T02:57:11.638Z,99303.91
2018-09-25T02:59:45.466Z,99309.88
2018-09-25T03:02:19.152Z,99304.30
2018-09-25T03:04:52.799Z,99310.30
2018-09-25T03:07:26.648Z,99303.91
2018-09-25T03:10:00.530Z,99301.73
2018-09-25T03:12:34.416Z,99301.73
2018-09-25T03:15:08.285Z,99301.34
2018-09-25T03:17:42.062Z,99307.66
2018-09-25T03:20:15.690Z,99308.94
2018-09-25T03:22:49.389Z,99314.53
2018-09-25T03:25:23.195Z,99318.45
2018-09-25T03:27:56.920Z,99315.81
2018-09-25T03:30:30.636Z,99320.12
2018-09-25T03:33:04.242Z,99326.52
2018-09-25T03:35:37.971Z,99318.84
2018-09-25T03:38:11.803Z,99318.45
2018-09-25T03:40:45.381Z,99326.12
2018-09-25T03:43:19.078Z,99328.61
2018-09-25T03:45:52.885Z,99329.97
2018-09-25T03:48:26.607Z,99326.12
2018-09-25T03:51:00.313Z,99327.80
2018-09-25T03:53:33.982Z,99328.22
2018-09-25T03:56:07.737Z,99329.50
2018-09-25T03:58:41.435Z,99328.61
2018-09-25T04:01:15.359Z,99331.55
2018-09-25T04:03:48.955Z,99332.91
2018-09-25T04:06:22.760Z,99329.08
2018-09-25T04:08:56.597Z,99337.17
2018-09-25T04:11:30.374Z,99337.17
2018-09-25T04:14:04.214Z,99341.02
2018-09-25T04:16:37.841Z,99340.12
2018-09-25T04:19:11.689Z,99344.34
2018-09-25T04:21:45.451Z,99344.34
2018-09-25T04:24:19.237Z,99349.08
2018-09-25T04:26:52.972Z,99348.19
2018-09-25T04:29:26.518Z,99347.80
2018-09-25T04:32:00.379Z,99355.48
2018-09-25T04:34:34.018Z,99359.70
2018-09-25T04:37:07.870Z,99359.31
2018-09-25T04:39:41.663Z,99357.95
2018-09-25T04:42:15.572Z,99366.91
2018-09-25T04:44:49.301Z,99366.09
2018-09-25T04:47:23.046Z,99368.66
2018-09-25T04:49:56.923Z,99366.91
2018-09-25T04:52:30.788Z,99372.91
2018-09-25T04:55:04.659Z,99374.19
2018-09-25T04:57:38.583Z,99381.88
2018-09-25T05:00:12.323Z,99378.80
2018-09-25T05:02:46.077Z,99372.41
2018-09-25T05:05:19.861Z,99377.94
2018-09-25T05:07:53.660Z,99377.94
2018-09-25T05:10:27.503Z,99378.42
2018-09-25T05:13:01.254Z,99376.25
2018-09-25T05:15:35.000Z,99378.80
2018-09-25T05:18:08.757Z,99378.80
2018-09-25T05:20:42.625Z,99382.17
2018-09-25T05:23:16.271Z,99385.20
2018-09-25T05:25:49.937Z,99385.20
2018-09-25T05:28:23.684Z,99389.84
2018-09-25T05:30:57.366Z,99391.60
2018-09-25T05:33:30.932Z,99394.97
2018-09-25T05:36:04.635Z,99402.34
2018-09-25T05:38:38.429Z,99402.73
2018-09-25T05:41:12.142Z,99396.24
2018-09-25T05:43:45.862Z,99408.74
2018-09-25T05:46:19.555Z,99412.16
2018-09-25T05:48:53.555Z,99411.77
2018-09-25T05:51:27.177Z,99412.97
2018-09-25T05:54:01.040Z,99410.32
2018-09-25T05:56:34.774Z,99421.92
2018-09-25T05:59:08.486Z,99426.15
2018-09-25T06:01:42.320Z,99425.67
2018-09-25T06:04:15.978Z,99427.94
2018-09-25T06:06:49.702Z,99432.55
2018-09-25T06:09:23.645Z,99427.43
2018-09-25T06:11:57.239Z,99429.52
2018-09-25T06:14:31.022Z,99440.64
2018-09-25T06:17:04.668Z,99439.75
2018-09-25T06:19:38.349Z,99441.03
2018-09-25T06:22:12.016Z,99445.25
2018-09-25T06:24:45.594Z,99447.42
2018-09-25T06:27:19.355Z,99455.48
2018-09-25T06:29:52.945Z,99458.05
2018-09-25T06:32:26.510Z,99457.57
2018-09-25T06:35:00.289Z,99457.57
2018-09-25T06:37:34.057Z,99461.12
2018-09-25T06:40:07.742Z,99466.91
2018-09-25T06:42:41.259Z,99466.23
2018-09-25T06:45:15.014Z,99465.72
2018-09-25T06:47:48.910Z,99466.70
2018-09-25T06:50:22.506Z,99475.66
2018-09-25T06:52:56.249Z,99470.94
2018-09-25T06:55:30.115Z,99481.50
2018-09-25T06:58:03.867Z,99482.17
2018-09-25T07:00:37.689Z,99493.22
2018-09-25T07:03:11.391Z,99496.88
2018-09-25T07:05:45.060Z,99496.69
2018-09-25T07:08:18.863Z,99509.38
2018-09-25T07:10:52.697Z,99510.48
2018-09-25T07:13:26.256Z,99515.13
2018-09-25T07:15:59.968Z,99517.97
2018-09-25T07:18:33.865Z,99515.32
2018-09-25T07:21:07.841Z,99521.81
2018-09-25T07:23:41.654Z,99529.49
2018-09-25T07:26:15.643Z,99532.95
2018-09-25T07:28:49.479Z,99532.19
2018-09-25T07:31:23.199Z,99545.07
2018-09-25T07:33:56.866Z,99553.80
2018-09-25T07:36:30.458Z,99552.32
2018-09-25T07:39:04.295Z,99552.80
2018-09-25T07:41:38.881Z,99552.03
2018-09-25T07:44:12.732Z,99558.42
2018-09-25T07:46:47.113Z,99561.08
2018-09-25T07:49:20.972Z,99555.16
2018-09-25T07:51:54.746Z,99564.59
2018-09-25T07:54:29.303Z,99563.83
2018-09-25T07:57:03.619Z,99571.50
2018-09-25T07:59:38.097Z,99570.70
2018-09-25T08:02:11.815Z,99577.29
2018-09-25T08:04:45.519Z,99579.85
2018-09-25T08:07:19.239Z,99573.36
2018-09-25T08:09:53.044Z,99571.22
2018-09-25T08:12:27.760Z,99574.06
2018-09-25T08:15:01.666Z,99571.60
2018-09-25T08:17:35.647Z,99566.58
2018-09-25T08:20:09.709Z,99566.58
2018-09-25T08:22:43.568Z,99565.39
2018-09-25T08:25:17.647Z,99566.39
2018-09-25T08:27:51.899Z,99567.76
2018-09-25T08:30:25.711Z,99560.56
2018-09-25T08:32:59.579Z,99562.73
2018-09-25T08:35:33.331Z,99569.22
2018-09-25T08:38:07.056Z,99567.53
2018-09-25T08:40:41.887Z,99575.81
2018-09-25T08:43:15.978Z,99574.20
2018-09-25T08:45:49.795Z,99576.48
2018-09-25T08:48:23.467Z,99575.67
2018-09-25T08:50:57.882Z,99571.36
2018-09-25T08:53:31.889Z,99579.42
2018-09-25T08:56:06.285Z,99576.38
2018-09-25T08:58:40.574Z,99576.77
2018-09-25T09:01:14.852Z,99577.09
2018-09-25T09:03:48.894Z,99576.28
2018-09-25T09:06:23.119Z,99579.65
2018-09-25T09:08:56.986Z,99577.77
2018-09-25T09:11:30.751Z,99576.58
2018-09-25T09:14:04.550Z,99578.38
2018-09-25T09:23:50.729Z,99569.13
2018-09-25T09:26:24.644Z,99570.31
2018-09-25T09:28:58.573Z,99571.80
2018-09-25T09:31:32.315Z,99574.36
2018-09-25T09:34:05.950Z,99564.55
2018-09-25T09:36:39.749Z,99560.13
2018-09-25T09:39:14.320Z,99563.88
2018-09-25T09:41:48.190Z,99562.41
2018-09-25T09:44:21.698Z,99563.08
2018-09-25T09:46:55.523Z,99564.27
2018-09-25T09:49:29.288Z,99559.95
2018-09-25T09:52:02.959Z,99561.80
2018-09-25T09:54:36.603Z,99556.39
2018-09-25T09:57:10.409Z,99555.31
2018-09-25T09:59:44.109Z,99559.72
2018-09-25T10:02:17.907Z,99557.25
2018-09-25T10:04:51.802Z,99557.34
2018-09-25T10:07:25.719Z,99558.05
2018-09-25T10:09:59.434Z,99559.05
2018-09-25T10:12:33.217Z,99567.30
2018-09-25T10:15:06.705Z,99559.91
2018-09-25T10:17:40.442Z,99559.91
2018-09-25T10:20:14.232Z,99560.42
2018-09-25T10:22:47.868Z,99559.42
2018-09-25T10:25:21.571Z,99560.52
2018-09-25T10:27:55.332Z,99555.97
2018-09-25T10:30:29.157Z,99562.88
2018-09-25T10:33:02.844Z,99559.23
2018-09-25T10:35:36.768Z,99558.82
2018-09-25T10:38:10.644Z,99562.27
2018-09-25T10:40:44.500Z,99556.45
2018-09-25T10:43:18.946Z,99551.75
2018-09-25T10:45:52.892Z,99559.00
2018-09-25T10:48:26.690Z,99559.91
2018-09-25T10:51:00.366Z,99555.59
2018-09-25T10:53:34.114Z,99552.61
2018-09-25T10:56:07.828Z,99552.61
2018-09-25T10:58:41.391Z,99548.01
2018-09-25T11:01:15.115Z,99548.01
2018-09-25T11:03:48.941Z,99540.23
2018-09-25T11:06:22.566Z,99545.73
2018-09-25T11:08:56.231Z,99546.22
2018-09-25T11:11:29.961Z,99542.28
2018-09-25T11:14:03.748Z,99548.68
2018-09-25T11:16:37.659Z,99542.28
2018-09-25T11:19:11.392Z,99554.31
2018-09-25T11:21:44.980Z,99548.30
2018-09-25T11:24:18.800Z,99545.64
2018-09-25T11:26:52.472Z,99540.91
2018-09-25T11:29:26.195Z,99545.27
2018-09-25T11:31:59.867Z,99539.73
2018-09-25T11:34:33.600Z,99537.67
2018-09-25T11:37:07.330Z,99534.13
2018-09-25T11:39:41.084Z,99534.23
2018-09-25T11:42:15.012Z,99528.12
2018-09-25T11:44:48.990Z,99523.00
2018-09-25T11:47:22.744Z,99528.21
2018-09-25T11:49:56.678Z,99531.28
2018-09-25T11:52:30.631Z,99523.99
2018-09-25T11:55:04.442Z,99527.92
2018-09-25T11:57:38.237Z,99523.99
2018-09-25T12:00:12.181Z,99515.04
2018-09-25T12:02:45.820Z,99518.17
2018-09-25T12:05:19.566Z,99514.75
2018-09-25T12:07:53.387Z,99519.06
2018-09-25T12:10:27.269Z,99514.33
2018-09-25T12:13:01.037Z,99507.08
2018-09-25T12:15:34.827Z,99508.73
2018-09-25T12:18:08.387Z,99507.45
2018-09-25T12:20:42.350Z,99505.47
2018-09-25T12:23:16.209Z,99503.33
2018-09-25T12:25:49.936Z,99505.37
2018-09-25T12:28:23.739Z,99498.50
2018-09-25T12:30:57.466Z,99497.23
2018-09-25T12:33:31.223Z,99493.77
2018-09-25T12:36:04.943Z,99500.67
2018-09-25T12:38:38.638Z,99503.00
2018-09-25T12:41:13.334Z,99501.73
2018-09-25T12:43:47.130Z,99495.23
2018-09-25T12:46:20.875Z,99490.21
2018-09-25T12:48:54.528Z,99490.12
2018-09-25T12:51:28.424Z,99484.91
2018-09-25T12:54:02.150Z,99486.09
2018-09-25T12:56:35.877Z,99485.23
2018-09-25T12:59:09.696Z,99477.95
2018-09-25T13:01:43.473Z,99480.21
2018-09-25T13:04:17.393Z,99474.59
2018-09-25T13:06:51.247Z,99481.07
2018-09-25T13:09:24.895Z,99481.16
2018-09-25T13:11:58.759Z,99482.45
2018-09-25T13:14:32.742Z,99479.89
2018-09-25T13:17:06.807Z,99485.42
2018-09-25T13:19:40.531Z,99483.34
2018-09-25T13:22:15.312Z,99480.78
2018-09-25T13:24:49.204Z,99476.14
2018-09-25T13:27:23.127Z,99480.88
2018-09-25T13:29:56.925Z,99480.97
2018-09-25T13:32:30.855Z,99480.25
2018-09-25T13:35:04.757Z,99481.95
2018-09-25T13:37:38.614Z,99477.70
2018-09-25T13:40:12.854Z,99473.47
2018-09-25T13:42:47.645Z,99475.05
2018-09-25T13:45:21.322Z,99472.91
2018-09-25T13:47:55.086Z,99474.66
2018-09-25T13:50:28.775Z,99479.69
2018-09-25T13:53:02.451Z,99471.30
2018-09-25T13:55:36.282Z,99466.27
2018-09-25T13:58:09.998Z,99473.00
2018-09-25T14:00:43.898Z,99462.48
2018-09-25T14:03:17.595Z,99463.67
2018-09-25T14:05:51.329Z,99456.77
2018-09-25T14:08:25.040Z,99463.58
2018-09-25T14:10:58.722Z,99461.03
2018-09-25T14:13:32.599Z,99453.64
2018-09-25T14:16:06.337Z,99451.18
2018-09-25T14:18:40.098Z,99451.18
2018-09-25T14:21:13.935Z,99454.63
2018-09-25T14:23:47.675Z,99455.02
2018-09-25T14:26:21.319Z,99454.13
2018-09-25T14:28:54.960Z,99455.02
2018-09-25T14:31:28.751Z,99451.98
2018-09-25T14:34:02.495Z,99448.62
2018-09-25T14:36:36.329Z,99455.91
2018-09-25T14:39:11.857Z,99457.19
2018-09-25T14:41:45.586Z,99456.30
2018-09-25T14:44:19.328Z,99456.30
2018-09-25T14:46:53.154Z,99457.57
2018-09-25T14:49:26.669Z,99456.30
2018-09-25T14:52:00.536Z,99451.56
2018-09-25T14:54:34.233Z,99451.66
2018-09-25T14:57:07.896Z,99452.84
2018-09-25T14:59:41.682Z,99451.56
2018-09-25T15:02:15.435Z,99457.95
2018-09-25T15:04:49.127Z,99448.14
2018-09-25T15:07:23.010Z,99446.86
2018-09-25T15:09:56.600Z,99445.17
2018-09-25T15:12:30.323Z,99441.93
2018-09-25T15:15:04.006Z,99437.29
2018-09-25T15:17:37.712Z,99441.42
2018-09-25T15:20:11.382Z,99438.00
2018-09-25T15:22:45.171Z,99437.11
2018-09-25T15:25:18.761Z,99431.99
2018-09-25T15:27:52.466Z,99435.45
2018-09-25T15:30:26.098Z,99437.49
2018-09-25T15:32:59.983Z,99450.47
2018-09-25T15:35:33.652Z,99446.54
2018-09-25T15:38:07.316Z,99444.87
2018-09-25T15:40:41.190Z,99439.85
2018-09-25T15:43:14.864Z,99432.98
2018-09-25T15:45:48.816Z,99436.02
2018-09-25T15:48:22.554Z,99437.29
2018-09-25T15:50:56.198Z,99442.41
2018-09-25T15:53:30.010Z,99436.39
2018-09-25T15:56:03.544Z,99445.44
2018-09-25T15:58:37.402Z,99445.86
2018-09-25T16:01:11.164Z,99454.81
2018-09-25T16:03:45.051Z,99454.81
2018-09-25T16:06:18.850Z,99461.59
2018-09-25T16:08:52.648Z,99462.88
2018-09-25T16:11:26.521Z,99453.02
2018-09-25T16:14:00.459Z,99448.80
2018-09-25T16:16:34.186Z,99440.66
2018-09-25T16:19:08.111Z,99434.64
2018-09-25T16:21:41.869Z,99438.56
2018-09-25T16:24:15.446Z,99442.80
2018-09-25T16:26:49.153Z,99437.67
2018-09-25T16:29:23.077Z,99435.53
2018-09-25T16:31:56.983Z,99441.52
2018-09-25T16:34:30.818Z,99443.59
2018-09-25T16:37:04.535Z,99447.91
2018-09-25T16:39:38.309Z,99450.47
2018-09-25T16:42:12.200Z,99448.33
2018-09-25T16:44:45.892Z,99447.44
2018-09-25T16:47:19.921Z,99456.86
2018-09-25T16:49:53.849Z,99459.03
2018-09-25T16:52:27.765Z,99458.56
2018-09-25T16:55:01.488Z,99457.66
2018-09-25T16:57:35.679Z,99458.05
2018-09-25T17:00:09.310Z,99472.12
2018-09-25T17:02:43.159Z,99476.47
2018-09-25T17:05:16.899Z,99478.52
2018-09-25T17:07:50.552Z,99479.02
2018-09-25T17:10:24.292Z,99479.02
2018-09-25T17:12:58.008Z,99484.14
2018-09-25T17:15:31.704Z,99494.38
2018-09-25T17:18:05.297Z,99487.80
2018-09-25T17:20:39.102Z,99473.81
2018-09-25T17:23:12.822Z,99464.86
2018-09-25T17:25:46.433Z,99461.89
2018-09-25T17:28:20.245Z,99468.70
2018-09-25T17:30:54.071Z,99471.64
2018-09-25T17:33:27.914Z,99468.61
2018-09-25T17:36:01.813Z,99475.48
2018-09-25T17:38:35.724Z,99469.47
2018-09-25T17:41:09.698Z,99471.17
2018-09-25T17:43:43.339Z,99471.17
2018-09-25T17:46:18.112Z,99472.92
2018-09-25T17:48:53.405Z,99487.80
2018-09-25T17:51:27.211Z,99479.70
2018-09-25T17:54:00.991Z,99483.45
2018-09-25T17:56:34.913Z,99485.23
2018-09-25T17:59:09.003Z,99476.66
2018-09-25T18:01:42.749Z,99477.14
2018-09-25T18:04:16.727Z,99484.53
2018-09-25T18:06:50.559Z,99481.07
2018-09-25T18:09:24.280Z,99481.97
2018-09-25T18:11:58.122Z,99484.53
2018-09-25T18:14:31.994Z,99488.45
2018-09-25T18:17:05.879Z,99480.30
2018-09-25T18:19:39.836Z,99487.56
2018-09-25T18:22:13.772Z,99489.26
2018-09-25T18:24:47.732Z,99481.07
2018-09-25T18:27:21.657Z,99494.66
2018-09-25T18:29:55.283Z,99488.27
2018-09-25T18:32:29.048Z,99492.68
2018-09-25T18:35:02.757Z,99495.33
2018-09-25T18:37:36.620Z,99500.63
2018-09-25T18:40:11.102Z,99508.45
2018-09-25T18:42:45.018Z,99519.16
2018-09-25T18:45:19.009Z,99520.44
2018-09-25T18:47:52.923Z,99525.94
2018-09-25T18:50:26.722Z,99519.06
2018-09-25T18:53:00.340Z,99519.54
2018-09-25T18:55:34.246Z,99517.40
2018-09-25T18:58:07.988Z,99530.19
2018-09-25T19:00:41.939Z,99531.05
2018-09-25T19:03:15.844Z,99531.05
2018-09-25T19:05:49.767Z,99531.86
2018-09-25T19:08:23.455Z,99532.84
2018-09-25T19:10:57.254Z,99536.77
2018-09-25T19:13:31.034Z,99540.10
2018-09-25T19:16:04.807Z,99543.17
2018-09-25T19:18:38.615Z,99544.45
2018-09-25T19:21:12.358Z,99538.44
2018-09-25T19:23:46.133Z,99544.45
2018-09-25T19:26:19.937Z,99543.84
2018-09-25T19:28:53.750Z,99327.35
2018-09-25T19:31:27.603Z,99539.05
2018-09-25T19:34:01.546Z,99545.92
2018-09-25T19:36:35.482Z,99541.19
2018-09-25T19:39:09.551Z,99533.05
2018-09-25T19:41:43.273Z,99533.84
2018-09-25T19:44:17.092Z,99530.00
2018-09-25T19:46:50.903Z,99531.76
2018-09-25T19:49:24.770Z,99530.48
2018-09-25T19:51:58.614Z,99528.72
2018-09-25T19:54:32.286Z,99528.31
2018-09-25T19:57:06.259Z,99529.20
2018-09-25T19:59:40.115Z,99539.81
2018-09-25T20:02:14.066Z,99539.81
2018-09-25T20:04:47.949Z,99546.13
2018-09-25T20:07:21.931Z,99548.39
2018-09-25T20:09:55.761Z,99553.13
2018-09-25T20:12:29.560Z,99553.50
2018-09-25T20:15:03.476Z,99548.39
2018-09-25T20:17:37.191Z,99551.33
2018-09-25T20:20:11.726Z,99544.94
2018-09-25T20:22:45.472Z,99549.28
2018-09-25T20:25:19.131Z,99554.78
2018-09-25T20:27:52.882Z,99554.31
2018-09-25T20:30:26.476Z,99567.09
2018-09-25T20:33:00.304Z,99578.20
2018-09-25T20:35:34.083Z,99577.81
2018-09-25T20:38:07.747Z,99585.48
2018-09-25T20:40:41.542Z,99590.60
2018-09-25T20:43:15.250Z,99593.55
2018-09-25T20:45:49.038Z,99584.59
2018-09-25T20:48:22.722Z,99585.87
2018-09-25T20:50:56.487Z,99585.10
2018-09-25T20:53:30.228Z,99590.22
2018-09-25T20:56:04.139Z,99583.31
2018-09-25T20:58:37.888Z,99573.59
2018-09-25T21:01:11.745Z,99579.89
2018-09-25T21:03:45.700Z,99580.37
2018-09-25T21:06:20.794Z,99576.14
2018-09-25T21:08:54.690Z,99568.86
2018-09-25T21:11:28.662Z,99552.23
2018-09-25T21:14:02.377Z,99555.17
2018-09-25T21:16:36.246Z,99550.05
2018-09-25T21:19:10.091Z,99543.66
2018-09-25T21:21:43.933Z,99532.05
2018-09-25T21:24:17.693Z,99532.95
2018-09-25T21:26:51.652Z,99526.17
2018-09-25T21:29:25.332Z,99523.61
2018-09-25T21:31:59.165Z,99518.88
2018-09-25T21:34:33.790Z,99521.05
2018-09-25T21:37:07.427Z,99525.66
2018-09-25T21:39:41.338Z,99524.38
2018-09-25T21:42:15.152Z,99521.44
2018-09-25T21:44:49.054Z,99520.54
2018-09-25T21:47:22.692Z,99526.94
2018-09-25T21:49:56.396Z,99530.39
2018-09-25T21:52:30.065Z,99531.28
2018-09-25T21:55:03.744Z,99526.17
2018-09-25T21:57:37.432Z,99528.03
2018-09-25T22:00:12.100Z,99529.40
2018-09-25T22:02:45.862Z,99529.02
2018-09-25T22:05:19.431Z,99527.35
2018-09-25T22:07:53.345Z,99531.95
2018-09-25T22:10:27.104Z,99533.33
2018-09-25T22:13:01.098Z,99530.39
2018-09-25T22:15:34.898Z,99534.13
2018-09-25T22:18:08.660Z,99532.85
2018-09-25T22:20:42.279Z,99535.41
2018-09-25T22:23:16.095Z,99521.25
2018-09-25T22:25:49.774Z,99523.90
2018-09-25T22:28:23.557Z,99520.06
2018-09-25T22:30:57.233Z,99510.63
2018-09-25T22:33:31.127Z,99514.05
2018-09-25T22:36:04.965Z,99514.14
2018-09-25T22:38:38.759Z,99512.77
2018-09-25T22:41:12.628Z,99507.27
2018-09-25T22:43:46.385Z,99502.54
2018-09-25T22:46:20.214Z,99507.75
2018-09-25T22:48:53.931Z,99509.22
2018-09-25T22:51:27.482Z,99506.27
2018-09-25T22:54:01.381Z,99503.52
2018-09-25T22:56:35.145Z,99498.77
2018-09-25T22:59:09.043Z,99494.66
2018-09-25T23:01:42.705Z,99495.42
2018-09-25T23:04:16.440Z,99488.94
2018-09-25T23:06:50.124Z,99487.27
2018-09-25T23:09:23.913Z,99489.54
2018-09-25T23:11:57.789Z,99491.67
2018-09-25T23:14:31.768Z,99491.67
2018-09-25T23:17:05.700Z,99481.86
2018-09-25T23:19:39.637Z,99478.50
2018-09-25T23:22:13.183Z,99481.24
2018-09-25T23:24:46.859Z,99482.43
2018-09-25T23:27:20.574Z,99480.25
2018-09-25T23:29:54.210Z,99472.48
2018-09-25T23:32:27.924Z,99463.05
2018-09-25T23:35:01.723Z,99452.34
2018-09-25T23:37:35.403Z,99442.11
2018-09-25T23:40:38.877Z,99446.72
2018-09-25T23:43:38.911Z,99450.08
2018-09-25T23:47:14.560Z,99456.86
2018-09-25T23:49:48.274Z,99465.72
2018-09-25T23:52:21.239Z,99460.52
2018-09-25T23:54:58.742Z,99463.08
2018-09-25T23:57:32.537Z,99466.44
